My Meet Scores
Evelyn Sponsel, Palmer's Gymnastics Inc. - MyMeetScores.com
Top100 | Top Teams | Upcoming Meets | Completed Meets | Latest | Add Scores | Help| Support | Bookmark and Share

Evelyn Sponsel, Palmer's Gymnastics Inc.
Personal Bests
LevelVault BarsBeamFloorAA
39.6009.375 9.1259.15036.825
49.4009.900 9.5509.35038.000
Scores on America's Top 100as of 07.27.2021
Year Level Vault Bars Beam Floor AA
2021 49.900

Click here to view our exclusive Top 100 Collection
Meet Scores
Date Meet Team Session Level Division Vault Bars Beam Floor AA
2021-03-12 2021 Illinois Level 4 State Championships Palmer's Gymnastics Inc. 4 4 Jr B 9.400 4 9.900 1 9.400 9T 9.300 5T 38.000 1T
2021-02-19 Women's Midwest Open 2021 Palmer's Gymnastics Inc. 01A 4 Senior A 9.250 3 9.150 12 9.450 5 9.350 4T 37.200 4
2021-01-15 Leenda's Island Adventure Palmer's Gymnastics Inc. A13 4 Jr C 9.100 2 9.600 2 9.450 3 9.050 4 37.200 2
2020-12-04 Wish Classic Palmer's Gymnastics Inc. ALL 4 JR 9.325 1 9.000 5 9.200 3 9.250 1T 36.775 2
2020-03-06 Illinois Level 4 State Championships Palmer's Gymnastics Inc. 1 4 Ch C 9.100 14T 8.575 26 9.000 21T 9.100 16T 35.775 22T
2020-02-21 Elevate the Stage Palmer's Gymnastics Inc. 1H 4 B 9.050 5 8.625 8 9.550 3 9.300 6 36.525 6
2020-02-07 IGI Chicago Style Meet Palmer's Gymnastics Inc. 122 4 A 9.100 8 8.575 11 8.650 13 8.500 19 34.825 13
2020-01-10 Leenda's Island Adventure Palmer's Gymnastics Inc. PG6 4 8 & Under 8.925 1* 8.700 7 8.975 4 9.125 3T 35.725 3T
2019-12-20 2019 Women's Hawaiian Pineapple Classic Palmer's Gymnastics Inc. 6B 4 Ages 8U 9.100 2 9.025 6 9.100 2 9.025 5 36.250 2
2019-12-06 Ultimate Wish Classic Palmer's Gymnastics Inc. 7 4 Jr A 8.350 6 8.900 5T 9.300 7 8.700 7 35.250 6
2019-03-08 2019 Illinois Level 3 State Championship Legacy Elite Gymnastics LLC All 3 Ch D 9.500 9T 9.375 14T 8.875 15T 8.550 28 36.300 20
2019-02-23 Kinetic Classic 2019 Legacy Elite Gymnastics LLC 1 3 Younger 9.050 11T 9.300 6 8.450 38T 8.750 25T 35.550 19
2019-02-15 Big ClassicBIG CLASSIC Legacy Elite Gymnastics LLC 1A 3 Child B 9.125 5T 8.925 4 9.025 7 8.900 3 35.975 3
2019-01-25 King Arthur Invitational Legacy Elite Gymnastics LLC 8 3 JR B 9.600 2T 9.350 3T 9.125 7 8.750 10 36.825 6
2019-01-11 Legacy Elite Classic Legacy Elite Gymnastics LLC 3B 3 JrA 9.550 1 8.850 7 8.575 5 8.900 6 35.875 5
2019-01-04 Leenda's Island Adventure Legacy Elite Gymnastics LLC G02 3 7 and Unde 9.375 3 8.525 5T 8.825 4T 9.150 2 35.875 2
2018-12-14 Hawaiian Pineapple Classic Legacy Elite Gymnastics LLC 2A 3 Ages7U 9.500 1 9.200 1 8.875 1 8.850 3T 36.425 1
2018-03-09 Lucky Invitational Legacy Elite Gymnastics LLC B02 3 Jr A 8.800 20T 7.825 18 8.200 15 8.250 17 33.075 18
2018-02-16 Big Classic Legacy Elite Gymnastics LLC 8B 3 Child A 8.600 12 7.350 12 8.250 9 8.575 12 32.775 12
2018-01-26 2018 UGA Classic Legacy Elite Gymnastics LLC A8 3 Jr A 8.450 17 7.725 14 8.500 10T 8.350 12 33.025 15
2018-01-12 Legacy Elite Winter Classic Legacy Elite Gymnastics LLC 2 3 ChildA 8.850 12T 7.100 13 6.850 14 8.000 13T 30.800 14
Get your scores on
a t-shirt, pin, or hoodie